createdAt,value
2023-02-05T00:03:58.439Z,101225.81
2023-02-05T00:08:57.562Z,101231.84
2023-02-05T00:13:56.657Z,101243.94
2023-02-05T00:18:58.239Z,101254.28
2023-02-05T00:23:57.070Z,101272.38
2023-02-05T00:28:55.813Z,101263.78
2023-02-05T00:33:56.051Z,101271.53
2023-02-05T00:38:55.151Z,101273.25
2023-02-05T00:43:53.914Z,101293.09
2023-02-05T00:48:52.645Z,101276.69
2023-02-05T00:53:52.960Z,101287.03
2023-02-05T00:58:51.770Z,101300.84
2023-02-05T01:03:50.657Z,101312.00
2023-02-05T01:08:49.589Z,101302.56
2023-02-05T01:13:49.808Z,101318.06
2023-02-05T01:18:48.634Z,101311.97
2023-02-05T01:23:47.417Z,101316.31
2023-02-05T01:28:47.195Z,101319.72
2023-02-05T01:33:47.519Z,101328.41
2023-02-05T01:38:46.360Z,101326.72
2023-02-05T01:43:45.170Z,101345.59
2023-02-05T01:48:47.910Z,101338.72
2023-02-05T01:53:49.765Z,101345.56
2023-02-05T01:58:53.629Z,101351.59
2023-02-05T02:03:53.098Z,101357.59
2023-02-05T02:08:53.866Z,101371.38
2023-02-05T02:13:56.352Z,101372.25
2023-02-05T02:18:55.913Z,101386.84
2023-02-05T02:24:13.930Z,101404.03
2023-02-05T02:29:19.676Z,101402.34
2023-02-05T02:34:22.236Z,101416.97
2023-02-05T02:39:26.941Z,101424.59
2023-02-05T02:44:34.792Z,101425.44
2023-02-05T02:49:39.370Z,101435.78
2023-02-05T02:54:42.472Z,101431.59
2023-02-05T02:59:47.293Z,101438.41
2023-02-05T03:04:53.206Z,101441.84
2023-02-05T03:10:00.450Z,101465.81
2023-02-05T03:15:01.266Z,101473.56
2023-02-05T03:20:05.168Z,101466.78
2023-02-05T03:25:06.438Z,101477.03
2023-02-05T03:30:10.293Z,101484.56
2023-02-05T03:35:22.266Z,101498.34
2023-02-05T03:40:26.505Z,101515.75
2023-02-05T03:45:41.004Z,101519.34
2023-02-05T03:50:45.169Z,101527.84
2023-02-05T03:55:49.264Z,101521.91
2023-02-05T04:00:50.369Z,101530.56
2023-02-05T04:05:50.095Z,101549.63
2023-02-05T04:10:50.912Z,101566.84
2023-02-05T04:15:52.274Z,101561.75
2023-02-05T04:20:51.250Z,101574.56
2023-02-05T04:25:55.290Z,101589.13
2023-02-05T04:31:03.147Z,101608.13
2023-02-05T04:36:05.743Z,101597.75
2023-02-05T04:41:05.030Z,101601.06
2023-02-05T04:46:08.836Z,101611.41
2023-02-05T04:51:08.952Z,101618.31
2023-02-05T04:56:09.256Z,101611.44
2023-02-05T05:01:15.682Z,101627.81
2023-02-05T05:06:15.522Z,101635.63
2023-02-05T05:11:16.098Z,101635.81
2023-02-05T05:16:16.697Z,101660.75
2023-02-05T05:21:15.592Z,101651.91
2023-02-05T05:26:14.772Z,101658.94
2023-02-05T05:31:19.799Z,101670.34
2023-02-05T05:36:19.217Z,101672.03
2023-02-05T05:41:39.264Z,101672.94
2023-02-05T05:46:41.252Z,101674.47
2023-02-05T05:51:40.206Z,101693.69
2023-02-05T05:56:39.181Z,101694.50
2023-02-05T06:01:39.690Z,101702.22
2023-02-05T06:06:38.468Z,101705.69
2023-02-05T06:11:37.246Z,101710.84
2023-02-05T06:16:36.154Z,101715.28
2023-02-05T06:21:36.541Z,101713.53
2023-02-05T06:26:35.331Z,101715.97
2023-02-05T06:31:34.374Z,101715.09
2023-02-05T06:36:33.299Z,101729.88
2023-02-05T06:41:33.472Z,101714.16
2023-02-05T06:46:32.829Z,101721.25
2023-02-05T06:51:31.839Z,101728.75
2023-02-05T06:56:30.711Z,101738.34
2023-02-05T07:01:31.196Z,101755.53
2023-02-05T07:06:30.308Z,101753.94
2023-02-05T07:11:29.220Z,101750.56
2023-02-05T07:16:28.262Z,101749.78
2023-02-05T07:21:28.633Z,101746.34
2023-02-05T07:26:27.517Z,101736.84
2023-02-05T07:31:27.086Z,101737.66
2023-02-05T07:36:26.079Z,101746.28
2023-02-05T07:41:29.649Z,101748.06
2023-02-05T07:46:28.577Z,101751.19
2023-02-05T07:51:27.770Z,101750.56
2023-02-05T07:56:28.907Z,101749.03
2023-02-05T08:01:29.079Z,101768.75
2023-02-05T08:06:30.822Z,101773.91
2023-02-05T08:11:32.605Z,101765.38
2023-02-05T08:16:37.025Z,101781.72
2023-02-05T08:21:36.506Z,101793.09
2023-02-05T08:26:36.821Z,101789.84
2023-02-05T08:31:35.995Z,101794.16
2023-02-05T08:36:35.009Z,101814.91
2023-02-05T08:41:33.952Z,101813.94
2023-02-05T08:46:48.898Z,101823.41
2023-02-05T08:51:49.482Z,101819.91
2023-02-05T08:56:51.318Z,101838.06
2023-02-05T09:01:52.507Z,101844.56
2023-02-05T09:06:51.423Z,101844.91
2023-02-05T09:11:50.661Z,101847.56
2023-02-05T09:16:49.763Z,101845.88
2023-02-05T09:21:50.049Z,101840.00
2023-02-05T09:26:49.592Z,101835.69
2023-02-05T09:31:49.109Z,101838.41
2023-02-05T09:36:49.738Z,101841.88
2023-02-05T09:41:57.103Z,101837.53
2023-02-05T09:47:05.802Z,101845.31
2023-02-05T09:52:13.621Z,101840.09
2023-02-05T09:57:17.643Z,101831.44
2023-02-05T10:02:26.444Z,101841.78
2023-02-05T10:07:38.610Z,101826.25
2023-02-05T10:12:49.591Z,101827.16
2023-02-05T10:18:01.450Z,101830.59
2023-02-05T10:23:15.351Z,101832.97
2023-02-05T10:28:25.678Z,101817.47
2023-02-05T10:33:42.348Z,101838.34
2023-02-05T10:38:45.258Z,101845.31
2023-02-05T10:43:50.586Z,101837.28
2023-02-05T10:48:55.764Z,101830.03
2023-02-05T10:53:56.319Z,101829.31
2023-02-05T10:58:56.866Z,101828.31
2023-02-05T11:04:01.728Z,101839.78
2023-02-05T11:09:30.252Z,101841.47
2023-02-05T11:14:42.145Z,101831.06
2023-02-05T11:19:41.443Z,101842.75
2023-02-05T11:24:42.771Z,101841.22
2023-02-05T11:29:42.104Z,101841.66
2023-02-05T11:34:41.132Z,101846.78
2023-02-05T11:39:42.496Z,101836.53
2023-02-05T11:44:51.397Z,101841.94
2023-02-05T11:49:52.523Z,101847.53
2023-02-05T11:54:53.198Z,101838.75
2023-02-05T11:59:57.590Z,101845.72
2023-02-05T12:05:02.305Z,101846.66
2023-02-05T12:10:03.227Z,101850.88
2023-02-05T12:15:11.906Z,101860.44
2023-02-05T12:20:22.783Z,101859.75
2023-02-05T12:25:30.004Z,101862.41
2023-02-05T12:31:00.313Z,101876.44
2023-02-05T12:36:12.608Z,101878.19
2023-02-05T12:41:24.819Z,101875.63
2023-02-05T12:46:45.278Z,101880.75
2023-02-05T12:51:54.235Z,101890.31
2023-02-05T12:57:02.747Z,101892.91
2023-02-05T13:02:12.083Z,101900.72
2023-02-05T13:07:20.046Z,101886.91
2023-02-05T13:12:28.348Z,101893.84
2023-02-05T13:17:32.888Z,101909.38
2023-02-05T13:23:08.547Z,101904.19
2023-02-05T13:28:42.731Z,101905.94
2023-02-05T13:33:41.946Z,101904.22
2023-02-05T13:38:57.571Z,101905.06
2023-02-05T13:44:17.656Z,101895.47
2023-02-05T13:49:44.137Z,101908.50
2023-02-05T13:55:08.748Z,101916.25
2023-02-05T14:00:15.573Z,101919.78
2023-02-05T14:05:16.198Z,101907.59
2023-02-05T14:10:28.300Z,101920.59
2023-02-05T14:15:41.068Z,101906.72
2023-02-05T14:20:44.738Z,101910.22
2023-02-05T14:26:11.927Z,101923.03
2023-02-05T14:31:59.095Z,101930.00
2023-02-05T14:36:58.508Z,101933.28
2023-02-05T14:41:59.668Z,101932.47
2023-02-05T14:47:20.714Z,101927.25
2023-02-05T14:52:36.722Z,101939.22
2023-02-05T14:57:43.841Z,101935.84
2023-02-05T15:03:21.756Z,101937.75
2023-02-05T15:08:30.608Z,101941.22
2023-02-05T15:13:29.783Z,101936.72
2023-02-05T15:18:31.495Z,101941.94
2023-02-05T15:23:38.795Z,101940.94
2023-02-05T15:28:42.218Z,101950.59
2023-02-05T15:33:50.162Z,101953.91
2023-02-05T15:38:58.100Z,101959.00
2023-02-05T15:44:03.162Z,101962.38
2023-02-05T15:49:09.967Z,101963.19
2023-02-05T15:54:21.985Z,101978.56
2023-02-05T15:59:27.231Z,101987.19
2023-02-05T16:04:31.460Z,101985.53
2023-02-05T16:09:34.902Z,101994.41
2023-02-05T16:14:38.618Z,101991.91
2023-02-05T16:19:54.436Z,102000.44
2023-02-05T16:25:21.941Z,102015.34
2023-02-05T16:30:32.060Z,102010.16
2023-02-05T16:35:52.113Z,102019.88
2023-02-05T16:40:57.359Z,102023.19
2023-02-05T16:46:26.434Z,102023.91
2023-02-05T16:51:48.362Z,102035.81
2023-02-05T16:56:56.087Z,102029.81
2023-02-05T17:01:55.643Z,102032.16
2023-02-05T17:06:58.306Z,102036.53
2023-02-05T17:12:43.081Z,102033.03
2023-02-05T17:17:50.673Z,102027.84
2023-02-05T17:23:14.945Z,102027.97
2023-02-05T17:28:21.706Z,102019.34
2023-02-05T17:33:23.165Z,102021.06
2023-02-05T17:38:24.524Z,102025.44
2023-02-05T17:43:25.687Z,102032.53
2023-02-05T17:48:25.826Z,102034.19
2023-02-05T17:53:33.668Z,102036.81
2023-02-05T17:58:39.743Z,102035.75
2023-02-05T18:03:39.951Z,102047.81
2023-02-05T18:08:40.394Z,102039.94
2023-02-05T18:13:48.860Z,102034.06
2023-02-05T18:18:52.194Z,102041.91
2023-02-05T18:23:53.739Z,102039.25
2023-02-05T18:28:55.102Z,102048.69
2023-02-05T18:33:54.613Z,102051.31
2023-02-05T18:38:53.998Z,102051.31
2023-02-05T18:44:00.620Z,102048.88
2023-02-05T18:49:16.271Z,102055.81
2023-02-05T18:54:45.816Z,102052.28
2023-02-05T18:59:48.542Z,102053.97
2023-02-05T19:04:52.272Z,102060.00
2023-02-05T19:09:51.906Z,102056.50
2023-02-05T19:14:57.110Z,102064.19
2023-02-05T19:20:00.185Z,102072.75
2023-02-05T19:25:01.360Z,102079.72
2023-02-05T19:30:04.928Z,102090.09
2023-02-05T19:35:06.237Z,102083.97
2023-02-05T19:40:06.761Z,102083.03
2023-02-05T19:45:08.020Z,102072.38
2023-02-05T19:50:07.211Z,102071.47
2023-02-05T19:55:06.586Z,102065.50
2023-02-05T20:00:08.083Z,102072.41
2023-02-05T20:05:11.210Z,102079.31
2023-02-05T20:10:10.404Z,102082.63
2023-02-05T20:15:11.886Z,102078.28
2023-02-05T20:20:24.892Z,102087.78
2023-02-05T20:25:27.055Z,102086.09
2023-02-05T20:30:45.151Z,102077.25
2023-02-05T20:35:43.972Z,102097.97
2023-02-05T20:40:42.796Z,102094.22
2023-02-05T20:45:43.008Z,102086.06
2023-02-05T20:50:41.798Z,102078.28
2023-02-05T20:55:42.671Z,102086.13
2023-02-05T21:00:42.980Z,102087.88
2023-02-05T21:05:41.943Z,102085.41
2023-02-05T21:10:40.889Z,102090.50
2023-02-05T21:15:39.964Z,102098.31
2023-02-05T21:20:40.274Z,102099.97
2023-02-05T21:25:39.020Z,102104.31
2023-02-05T21:30:38.354Z,102099.06
2023-02-05T21:35:40.016Z,102104.69
2023-02-05T21:40:39.304Z,102113.91
2023-02-05T21:45:38.081Z,102117.94
2023-02-05T21:50:40.855Z,102132.69
2023-02-05T21:55:39.819Z,102130.03
2023-02-05T22:00:38.621Z,102133.09
2023-02-05T22:05:37.463Z,102134.81
2023-02-05T22:10:37.589Z,102142.81
2023-02-05T22:15:36.550Z,102140.19
2023-02-05T22:20:35.651Z,102137.41
2023-02-05T22:25:34.567Z,102135.88
2023-02-05T22:30:35.344Z,102133.22
2023-02-05T22:35:34.978Z,102132.41
2023-02-05T22:40:34.487Z,102135.78
2023-02-05T22:45:34.984Z,102136.56
2023-02-05T22:50:37.946Z,102138.88
2023-02-05T22:55:37.538Z,102133.31
2023-02-05T23:00:37.792Z,102140.19
2023-02-05T23:05:36.999Z,102137.63
2023-02-05T23:10:35.918Z,102126.03
2023-02-05T23:15:37.975Z,102127.09
2023-02-05T23:20:36.703Z,102130.75
2023-02-05T23:25:37.590Z,102129.06
2023-02-05T23:30:38.137Z,102139.66
2023-02-05T23:35:37.355Z,102142.47
2023-02-05T23:40:36.206Z,102147.84
2023-02-05T23:45:35.200Z,102150.31
2023-02-05T23:50:36.175Z,102161.41
2023-02-05T23:55:39.844Z,102158.72
